Map

Track Data

SID SEASON NUMBER BASIN SUBBASIN NAME ISO_TIME NATURE LAT LON WMO_WIND WMO_PRES WMO_AGENCY TRACK_TYPE DIST2LAND LANDFALL IFLAG USA_AGENCY USA_ATCF_ID USA_LAT USA_LON USA_RECORD USA_STATUS USA_WIND USA_PRES USA_SSHS USA_R34_NE USA_R34_SE USA_R34_SW USA_R34_NW USA_R50_NE USA_R50_SE USA_R50_SW USA_R50_NW USA_R64_NE USA_R64_SE USA_R64_SW USA_R64_NW USA_POCI USA_ROCI USA_RMW USA_EYE TOKYO_LAT TOKYO_LON TOKYO_GRADE TOKYO_WIND TOKYO_PRES TOKYO_R50_DIR TOKYO_R50_LONG TOKYO_R50_SHORT TOKYO_R30_DIR TOKYO_R30_LONG TOKYO_R30_SHORT TOKYO_LAND CMA_LAT CMA_LON CMA_CAT CMA_WIND CMA_PRES HKO_LAT HKO_LON HKO_CAT HKO_WIND HKO_PRES NEWDELHI_LAT NEWDELHI_LON NEWDELHI_GRADE NEWDELHI_WIND NEWDELHI_PRES NEWDELHI_CI NEWDELHI_DP NEWDELHI_POCI REUNION_LAT REUNION_LON REUNION_TYPE REUNION_WIND REUNION_PRES REUNION_TNUM REUNION_CI REUNION_RMW REUNION_R34_NE REUNION_R34_SE REUNION_R34_SW REUNION_R34_NW REUNION_R50_NE REUNION_R50_SE REUNION_R50_SW REUNION_R50_NW REUNION_R64_NE REUNION_R64_SE REUNION_R64_SW REUNION_R64_NW BOM_LAT BOM_LON BOM_TYPE BOM_WIND BOM_PRES BOM_TNUM BOM_CI BOM_RMW BOM_R34_NE BOM_R34_SE BOM_R34_SW BOM_R34_NW BOM_R50_NE BOM_R50_SE BOM_R50_SW BOM_R50_NW BOM_R64_NE BOM_R64_SE BOM_R64_SW BOM_R64_NW BOM_ROCI BOM_POCI BOM_EYE BOM_POS_METHOD BOM_PRES_METHOD NADI_LAT NADI_LON NADI_CAT NADI_WIND NADI_PRES WELLINGTON_LAT WELLINGTON_LON WELLINGTON_WIND WELLINGTON_PRES DS824_LAT DS824_LON DS824_STAGE DS824_WIND DS824_PRES TD9636_LAT TD9636_LON TD9636_STAGE TD9636_WIND TD9636_PRES TD9635_LAT TD9635_LON TD9635_WIND TD9635_PRES TD9635_ROCI NEUMANN_LAT NEUMANN_LON NEUMANN_CLASS NEUMANN_WIND NEUMANN_PRES MLC_LAT MLC_LON MLC_CLASS MLC_WIND MLC_PRES USA_GUST BOM_GUST BOM_GUST_PER REUNION_GUST REUNION_GUST_PER USA_SEAHGT USA_SEARAD_NE USA_SEARAD_SE USA_SEARAD_SW USA_SEARAD_NW STORM_SPEED STORM_DIR
1901241N14338 1901 28 NA NA NOT_NAMED 1901-08-29 06:00:00 TS 13.6000 -22.4000 30 hurdat_atl main 542 542 O_____________ hurdat_atl AL071901 13.6000 -22.4000 TD 30 -1 15 273
1901241N14338 1901 28 NA NA NOT_NAMED 1901-08-29 09:00:00 TS 13.6401 -23.1601 main 627 627 P_____________ AL071901 13.6401 -23.1601 TD 32 -1 16 274
1901241N14338 1901 28 NA NA NOT_NAMED 1901-08-29 12:00:00 TS 13.7000 -24.0000 35 hurdat_atl main 709 709 O_____________ hurdat_atl AL071901 13.7000 -24.0000 TS 35 0 18 275
1901241N14338 1901 28 NA NA NOT_NAMED 1901-08-29 15:00:00 TS 13.7927 -24.9574 main 814 814 P_____________ AL071901 13.7927 -24.9574 TS 35 0 19 276
1901241N14338 1901 28 NA NA NOT_NAMED 1901-08-29 18:00:00 TS 13.9000 -25.9000 35 hurdat_atl main 909 909 O_____________ hurdat_atl AL071901 13.9000 -25.9000 TS 35 0 17 277
1901241N14338 1901 28 NA NA NOT_NAMED 1901-08-29 21:00:00 TS 14.0070 -26.6875 main 994 994 P_____________ AL071901 14.0070 -26.6875 TS 37 0 15 278
1901241N14338 1901 28 NA NA NOT_NAMED 1901-08-30 00:00:00 TS 14.1000 -27.4000 40 hurdat_atl main 1068 1068 O_____________ hurdat_atl AL071901 14.1000 -27.4000 TS 40 0 14 276
1901241N14338 1901 28 NA NA NOT_NAMED 1901-08-30 03:00:00 TS 14.1572 -28.1076 main 1143 1143 P_____________ AL071901 14.1572 -28.1076 TS 40 0 14 274
1901241N14338 1901 28 NA NA NOT_NAMED 1901-08-30 06:00:00 TS 14.2000 -28.8000 40 hurdat_atl main 1218 1218 O_____________ hurdat_atl AL071901 14.2000 -28.8000 TS 40 0 14 274
1901241N14338 1901 28 NA NA NOT_NAMED 1901-08-30 09:00:00 TS 14.2499 -29.5075 main 1293 1293 P_____________ AL071901 14.2499 -29.5075 TS 42 0 14 274
1901241N14338 1901 28 NA NA NOT_NAMED 1901-08-30 12:00:00 TS 14.3000 -30.2000 45 hurdat_atl main 1368 1368 O_____________ hurdat_atl AL071901 14.3000 -30.2000 TS 45 0 13 274
1901241N14338 1901 28 NA NA NOT_NAMED 1901-08-30 15:00:00 TS 14.3496 -30.8426 main 1432 1432 P_____________ AL071901 14.3496 -30.8426 TS 45 0 13 275
1901241N14338 1901 28 NA NA NOT_NAMED 1901-08-30 18:00:00 TS 14.4000 -31.5000 45 hurdat_atl main 1507 1507 O_____________ hurdat_atl AL071901 14.4000 -31.5000 TS 45 0 14 274
1901241N14338 1901 28 NA NA NOT_NAMED 1901-08-30 21:00:00 TS 14.4424 -32.2351 main 1582 1582 P_____________ AL071901 14.4424 -32.2351 TS 47 0 15 274
1901241N14338 1901 28 NA NA NOT_NAMED 1901-08-31 00:00:00 TS 14.5000 -33.0000 50 hurdat_atl main 1668 1668 O_____________ hurdat_atl AL071901 14.5000 -33.0000 TS 50 0 15 276
1901241N14338 1901 28 NA NA NOT_NAMED 1901-08-31 03:00:00 TS 14.5845 -33.7276 main 1743 1743 P_____________ AL071901 14.5845 -33.7276 TS 50 0 15 278
1901241N14338 1901 28 NA NA NOT_NAMED 1901-08-31 06:00:00 TS 14.7000 -34.5000 50 hurdat_atl main 1828 1828 O_____________ hurdat_atl AL071901 14.7000 -34.5000 TS 50 0 16 280
1901241N14338 1901 28 NA NA NOT_NAMED 1901-08-31 09:00:00 TS 14.8577 -35.4073 main 1924 1924 P_____________ AL071901 14.8577 -35.4073 TS 52 0 18 280
1901241N14338 1901 28 NA NA NOT_NAMED 1901-08-31 12:00:00 TS 15.0000 -36.3000 55 hurdat_atl main 2021 1972 O_____________ hurdat_atl AL071901 15.0000 -36.3000 TS 55 0 16 277
1901241N14338 1901 28 NA NA NOT_NAMED 1901-08-31 15:00:00 TS 15.0495 -37.0378 main 1972 1918 P_____________ AL071901 15.0495 -37.0378 TS 55 0 14 274
1901241N14338 1901 28 NA NA NOT_NAMED 1901-08-31 18:00:00 TS 15.1000 -37.7000 55 hurdat_atl main 1918 1875 O_____________ hurdat_atl AL071901 15.1000 -37.7000 TS 55 0 13 278
1901241N14338 1901 28 NA NA NOT_NAMED 1901-08-31 21:00:00 TS 15.2347 -38.3500 main 1875 1832 P_____________ AL071901 15.2347 -38.3500 TS 57 0 13 283
1901241N14338 1901 28 NA NA NOT_NAMED 1901-09-01 00:00:00 TS 15.4000 -39.0000 60 hurdat_atl main 1832 1792 O_____________ hurdat_atl AL071901 15.4000 -39.0000 TS 60 0 13 283
1901241N14338 1901 28 NA NA NOT_NAMED 1901-09-01 03:00:00 TS 15.5272 -39.6779 main 1784 1746 P_____________ AL071901 15.5272 -39.6779 TS 60 0 14 283
1901241N14338 1901 28 NA NA NOT_NAMED 1901-09-01 06:00:00 TS 15.7000 -40.4000 60 hurdat_atl main 1746 1712 O_____________ hurdat_atl AL071901 15.7000 -40.4000 TS 60 0 16 287
1901241N14338 1901 28 NA NA NOT_NAMED 1901-09-01 09:00:00 TS 15.9852 -41.2147 main 1713 1684 P_____________ AL071901 15.9852 -41.2147 TS 62 0 17 291
1901241N14338 1901 28 NA NA NOT_NAMED 1901-09-01 12:00:00 TS 16.3000 -42.0000 65 hurdat_atl main 1684 1664 O_____________ hurdat_atl AL071901 16.3000 -42.0000 HU 65 1 15 293
1901241N14338 1901 28 NA NA NOT_NAMED 1901-09-01 15:00:00 TS 16.5494 -42.6155 main 1664 1652 P_____________ AL071901 16.5494 -42.6155 HU 65 1 13 293
1901241N14338 1901 28 NA NA NOT_NAMED 1901-09-01 18:00:00 TS 16.8000 -43.2000 65 hurdat_atl main 1654 1632 O_____________ hurdat_atl AL071901 16.8000 -43.2000 HU 65 1 13 294
1901241N14338 1901 28 NA NA NOT_NAMED 1901-09-01 21:00:00 TS 17.0924 -43.8851 main 1635 1616 P_____________ AL071901 17.0924 -43.8851 HU 67 1 15 294
1901241N14338 1901 28 NA NA NOT_NAMED 1901-09-02 00:00:00 TS 17.4000 -44.6000 70 hurdat_atl main 1620 1609 O_____________ hurdat_atl AL071901 17.4000 -44.6000 HU 70 1 15 295
1901241N14338 1901 28 NA NA NOT_NAMED 1901-09-02 03:00:00 TS 17.7072 -45.2927 main 1609 1602 P_____________ AL071901 17.7072 -45.2927 HU 70 1 15 294
1901241N14338 1901 28 NA NA NOT_NAMED 1901-09-02 06:00:00 TS 18.0000 -46.0000 70 hurdat_atl main 1602 1589 O_____________ hurdat_atl AL071901 18.0000 -46.0000 HU 70 1 15 292
1901241N14338 1901 28 NA NA NOT_NAMED 1901-09-02 09:00:00 TS 18.2650 -46.7576 main 1595 1583 P_____________ AL071901 18.2650 -46.7576 HU 72 1 15 289
1901241N14338 1901 28 NA NA NOT_NAMED 1901-09-02 12:00:00 TS 18.5000 -47.5000 75 hurdat_atl main 1586 1573 O_____________ hurdat_atl AL071901 18.5000 -47.5000 HU 75 1 14 289
1901241N14338 1901 28 NA NA NOT_NAMED 1901-09-02 15:00:00 TS 18.7146 -48.1652 main 1574 1566 P_____________ AL071901 18.7146 -48.1652 HU 75 1 13 288
1901241N14338 1901 28 NA NA NOT_NAMED 1901-09-02 18:00:00 TS 18.9000 -48.8000 75 hurdat_atl main 1568 1554 O_____________ hurdat_atl AL071901 18.9000 -48.8000 HU 75 1 13 285
1901241N14338 1901 28 NA NA NOT_NAMED 1901-09-02 21:00:00 TS 19.0498 -49.4503 main 1545 1508 P_____________ AL071901 19.0498 -49.4503 HU 77 1 13 284
1901241N14338 1901 28 NA NA NOT_NAMED 1901-09-03 00:00:00 TS 19.2000 -50.1000 80 hurdat_atl main 1508 1472 O_____________ hurdat_atl AL071901 19.2000 -50.1000 HU 80 1 13 286
1901241N14338 1901 28 NA NA NOT_NAMED 1901-09-03 03:00:00 TS 19.3923 -50.7501 main 1464 1432 P_____________ AL071901 19.3923 -50.7501 HU 80 1 13 288
1901241N14338 1901 28 NA NA NOT_NAMED 1901-09-03 06:00:00 TS 19.6000 -51.4000 80 hurdat_atl main 1432 1402 O_____________ hurdat_atl AL071901 19.6000 -51.4000 HU 80 1 13 288
1901241N14338 1901 28 NA NA NOT_NAMED 1901-09-03 09:00:00 TS 19.7771 -52.0355 main 1402 1366 P_____________ AL071901 19.7771 -52.0355 HU 82 1 13 288
1901241N14338 1901 28 NA NA NOT_NAMED 1901-09-03 12:00:00 TS 20.0000 -52.7000 85 hurdat_atl main 1366 1297 O_____________ hurdat_atl AL071901 20.0000 -52.7000 HU 85 2 14 292
1901241N14338 1901 28 NA NA NOT_NAMED 1901-09-03 15:00:00 TS 20.3200 -53.4425 main 1297 1221 P_____________ AL071901 20.3200 -53.4425 HU 85 2 16 296
1901241N14338 1901 28 NA NA NOT_NAMED 1901-09-03 18:00:00 TS 20.7000 -54.2000 85 hurdat_atl main 1221 1156 O_____________ hurdat_atl AL071901 20.7000 -54.2000 HU 85 2 16 299
1901241N14338 1901 28 NA NA NOT_NAMED 1901-09-03 21:00:00 TS 21.0696 -54.9082 main 1159 1100 P_____________ AL071901 21.0696 -54.9082 HU 87 2 15 301
1901241N14338 1901 28 NA NA NOT_NAMED 1901-09-04 00:00:00 TS 21.5000 -55.6000 90 hurdat_atl main 1100 1046 O_____________ hurdat_atl AL071901 21.5000 -55.6000 HU 90 2 16 305
1901241N14338 1901 28 NA NA NOT_NAMED 1901-09-04 03:00:00 TS 22.0051 -56.3301 main 1050 1010 P_____________ AL071901 22.0051 -56.3301 HU 90 2 17 310
1901241N14338 1901 28 NA NA NOT_NAMED 1901-09-04 06:00:00 TS 22.6000 -57.0000 90 hurdat_atl main 1010 992 O_____________ hurdat_atl AL071901 22.6000 -57.0000 HU 90 2 17 319
1901241N14338 1901 28 NA NA NOT_NAMED 1901-09-04 09:00:00 TS 23.3073 -57.5747 main 995 992 P_____________ AL071901 23.3073 -57.5747 HU 90 2 17 327
1901241N14338 1901 28 NA NA NOT_NAMED 1901-09-04 12:00:00 TS 24.0000 -58.0000 90 hurdat_atl main 1005 1004 O_____________ hurdat_atl AL071901 24.0000 -58.0000 HU 90 2 14 333
1901241N14338 1901 28 NA NA NOT_NAMED 1901-09-04 15:00:00 TS 24.5222 -58.2534 main 1017 1017 P_____________ AL071901 24.5222 -58.2534 HU 90 2 11 340
1901241N14338 1901 28 NA NA NOT_NAMED 1901-09-04 18:00:00 TS 25.0000 -58.4000 90 hurdat_atl main 1047 1047 O_____________ hurdat_atl AL071901 25.0000 -58.4000 HU 90 2 11 345
1901241N14338 1901 28 NA NA NOT_NAMED 1901-09-04 21:00:00 TS 25.5500 -58.5651 main 1072 1072 P_____________ AL071901 25.5500 -58.5651 HU 90 2 11 346
1901241N14338 1901 28 NA NA NOT_NAMED 1901-09-05 00:00:00 TS 26.1000 -58.7000 90 hurdat_atl main 1115 1115 O_____________ hurdat_atl AL071901 26.1000 -58.7000 HU 90 2 11 348
1901241N14338 1901 28 NA NA NOT_NAMED 1901-09-05 03:00:00 TS 26.6150 -58.8151 main 1151 1151 P_____________ AL071901 26.6150 -58.8151 HU 90 2 10 350
1901241N14338 1901 28 NA NA NOT_NAMED 1901-09-05 06:00:00 TS 27.1000 -58.9000 90 hurdat_atl main 1189 1189 O_____________ hurdat_atl AL071901 27.1000 -58.9000 HU 90 2 10 352
1901241N14338 1901 28 NA NA NOT_NAMED 1901-09-05 09:00:00 TS 27.5650 -58.9576 main 1229 1229 P_____________ AL071901 27.5650 -58.9576 HU 90 2 9 355
1901241N14338 1901 28 NA NA NOT_NAMED 1901-09-05 12:00:00 TS 28.0000 -59.0000 90 hurdat_atl main 1266 1266 O_____________ hurdat_atl AL071901 28.0000 -59.0000 HU 90 2 9 354
1901241N14338 1901 28 NA NA NOT_NAMED 1901-09-05 15:00:00 TS 28.4150 -59.0500 main 1298 1298 P_____________ AL071901 28.4150 -59.0500 HU 90 2 8 354
1901241N14338 1901 28 NA NA NOT_NAMED 1901-09-05 18:00:00 TS 28.8000 -59.1000 90 hurdat_atl main 1336 1336 O_____________ hurdat_atl AL071901 28.8000 -59.1000 HU 90 2 8 353
1901241N14338 1901 28 NA NA NOT_NAMED 1901-09-05 21:00:00 TS 29.1650 -59.1649 main 1370 1370 P_____________ AL071901 29.1650 -59.1649 HU 90 2 7 353
1901241N14338 1901 28 NA NA NOT_NAMED 1901-09-06 00:00:00 TS 29.5000 -59.2000 90 hurdat_atl main 1399 1399 O_____________ hurdat_atl AL071901 29.5000 -59.2000 HU 90 2 6 358
1901241N14338 1901 28 NA NA NOT_NAMED 1901-09-06 03:00:00 TS 29.8075 -59.1651 main 1429 1429 P_____________ AL071901 29.8075 -59.1651 HU 90 2 6 8
1901241N14338 1901 28 NA NA NOT_NAMED 1901-09-06 06:00:00 TS 30.1000 -59.1000 90 hurdat_atl main 1463 1463 O_____________ hurdat_atl AL071901 30.1000 -59.1000 HU 90 2 6 8
1901241N14338 1901 28 NA NA NOT_NAMED 1901-09-06 09:00:00 TS 30.3774 -59.0721 main 1492 1492 P_____________ AL071901 30.3774 -59.0721 HU 87 2 6 8
1901241N14338 1901 28 NA NA NOT_NAMED 1901-09-06 12:00:00 TS 30.7000 -59.0000 85 hurdat_atl main 1526 1490 O_____________ hurdat_atl AL071901 30.7000 -59.0000 HU 85 2 8 14
1901241N14338 1901 28 NA NA NOT_NAMED 1901-09-06 15:00:00 TS 31.1199 -58.8522 main 1490 1449 P_____________ AL071901 31.1199 -58.8522 HU 85 2 10 21
1901241N14338 1901 28 NA NA NOT_NAMED 1901-09-06 18:00:00 TS 31.6000 -58.6000 85 hurdat_atl main 1449 1408 O_____________ hurdat_atl AL071901 31.6000 -58.6000 HU 85 2 11 29
1901241N14338 1901 28 NA NA NOT_NAMED 1901-09-06 21:00:00 TS 32.0926 -58.2301 main 1412 1377 P_____________ AL071901 32.0926 -58.2301 HU 85 2 12 34
1901241N14338 1901 28 NA NA NOT_NAMED 1901-09-07 00:00:00 TS 32.6000 -57.8000 85 hurdat_atl main 1377 1340 O_____________ hurdat_atl AL071901 32.6000 -57.8000 HU 85 2 13 34
1901241N14338 1901 28 NA NA NOT_NAMED 1901-09-07 03:00:00 TS 33.1298 -57.4074 main 1345 1314 P_____________ AL071901 33.1298 -57.4074 HU 85 2 12 34
1901241N14338 1901 28 NA NA NOT_NAMED 1901-09-07 06:00:00 TS 33.6000 -57.0000 85 hurdat_atl main 1314 1300 O_____________ hurdat_atl AL071901 33.6000 -57.0000 HU 85 2 11 42
1901241N14338 1901 28 NA NA NOT_NAMED 1901-09-07 09:00:00 TS 33.9375 -56.5495 main 1310 1293 P_____________ AL071901 33.9375 -56.5495 HU 85 2 10 51
1901241N14338 1901 28 NA NA NOT_NAMED 1901-09-07 12:00:00 TS 34.2000 -56.1000 85 hurdat_atl main 1295 1280 O_____________ hurdat_atl AL071901 34.2000 -56.1000 HU 85 2 9 53
1901241N14338 1901 28 NA NA NOT_NAMED 1901-09-07 15:00:00 TS 34.4568 -55.7292 main 1275 1264 P_____________ AL071901 34.4568 -55.7292 HU 85 2 8 53
1901241N14338 1901 28 NA NA NOT_NAMED 1901-09-07 18:00:00 TS 34.7000 -55.3000 85 hurdat_atl main 1267 1256 O_____________ hurdat_atl AL071901 34.7000 -55.3000 HU 85 2 10 58
1901241N14338 1901 28 NA NA NOT_NAMED 1901-09-07 21:00:00 TS 34.9567 -54.7397 main 1257 1254 P_____________ AL071901 34.9567 -54.7397 HU 85 2 12 65
1901241N14338 1901 28 NA NA NOT_NAMED 1901-09-08 00:00:00 TS 35.2000 -54.0000 85 hurdat_atl main 1263 1246 O_____________ hurdat_atl AL071901 35.2000 -54.0000 HU 85 2 15 71
1901241N14338 1901 28 NA NA NOT_NAMED 1901-09-08 03:00:00 TS 35.4228 -53.0527 main 1246 1226 P_____________ AL071901 35.4228 -53.0527 HU 82 1 17 76
1901241N14338 1901 28 NA NA NOT_NAMED 1901-09-08 06:00:00 TS 35.6000 -52.0000 80 hurdat_atl main 1227 1219 O_____________ hurdat_atl AL071901 35.6000 -52.0000 HU 80 1 17 80
1901241N14338 1901 28 NA NA NOT_NAMED 1901-09-08 09:00:00 TS 35.7132 -51.0365 main 1226 1220 P_____________ AL071901 35.7132 -51.0365 HU 80 1 16 83
1901241N14338 1901 28 NA NA NOT_NAMED 1901-09-08 12:00:00 TS 35.8000 -50.0000 80 hurdat_atl main 1230 1230 O_____________ hurdat_atl AL071901 35.8000 -50.0000 HU 80 1 18 84
1901241N14338 1901 28 NA NA NOT_NAMED 1901-09-08 15:00:00 TS 35.9132 -48.8328 main 1245 1245 P_____________ AL071901 35.9132 -48.8328 HU 80 1 20 84
1901241N14338 1901 28 NA NA NOT_NAMED 1901-09-08 18:00:00 TS 36.0000 -47.5000 80 hurdat_atl main 1270 1270 O_____________ hurdat_atl AL071901 36.0000 -47.5000 HU 80 1 23 88
1901241N14338 1901 28 NA NA NOT_NAMED 1901-09-08 21:00:00 TS 35.9996 -45.9932 main 1321 1321 P_____________ AL071901 35.9996 -45.9932 HU 80 1 25 90
1901241N14338 1901 28 NA NA NOT_NAMED 1901-09-09 00:00:00 TS 36.0000 -44.4000 80 hurdat_atl main 1386 1386 O_____________ hurdat_atl AL071901 36.0000 -44.4000 HU 80 1 26 89
1901241N14338 1901 28 NA NA NOT_NAMED 1901-09-09 03:00:00 TS 36.0402 -42.7887 main 1460 1460 P_____________ AL071901 36.0402 -42.7887 HU 80 1 25 85
1901241N14338 1901 28 NA NA NOT_NAMED 1901-09-09 06:00:00 TS 36.2000 -41.3000 80 hurdat_atl main 1518 1518 O_____________ hurdat_atl AL071901 36.2000 -41.3000 HU 80 1 23 78
1901241N14338 1901 28 NA NA NOT_NAMED 1901-09-09 09:00:00 TS 36.5308 -40.0381 main 1564 1556 P_____________ AL071901 36.5308 -40.0381 HU 80 1 20 67
1901241N14338 1901 28 NA NA NOT_NAMED 1901-09-09 12:00:00 TS 37.0000 -39.0000 80 hurdat_atl main 1581 1579 O_____________ hurdat_atl AL071901 37.0000 -39.0000 HU 80 1 18 57
1901241N14338 1901 28 NA NA NOT_NAMED 1901-09-09 15:00:00 TS 37.5031 -38.1527 main 1591 1589 P_____________ AL071901 37.5031 -38.1527 HU 77 1 17 49
1901241N14338 1901 28 NA NA NOT_NAMED 1901-09-09 18:00:00 TS 38.1000 -37.4000 75 hurdat_atl main 1596 1593 O_____________ hurdat_atl AL071901 38.1000 -37.4000 HU 75 1 18 45
1901241N14338 1901 28 NA NA NOT_NAMED 1901-09-09 21:00:00 TS 38.7692 -36.5710 main 1597 1597 P_____________ AL071901 38.7692 -36.5710 HU 72 1 19 43
1901241N14338 1901 28 NA NA NOT_NAMED 1901-09-10 00:00:00 TS 39.5000 -35.7000 70 hurdat_atl main 1611 1611 O_____________ hurdat_atl AL071901 39.5000 -35.7000 HU 70 1 20 44
1901241N14338 1901 28 NA NA NOT_NAMED 1901-09-10 03:00:00 TS 40.2048 -34.7548 main 1631 1631 P_____________ AL071901 40.2048 -34.7548 HU 70 1 21 44
1901241N14338 1901 28 NA NA NOT_NAMED 1901-09-10 06:00:00 TS 41.0000 -33.8000 70 hurdat_atl main 1651 1651 O_____________ hurdat_atl AL071901 41.0000 -33.8000 HU 70 1 23 39
1901241N14338 1901 28 NA NA NOT_NAMED 1901-09-10 09:00:00 TS 42.0076 -32.8425 main 1667 1662 P_____________ AL071901 42.0076 -32.8425 HU 67 1 24 34
1901241N14338 1901 28 NA NA NOT_NAMED 1901-09-10 12:00:00 TS 43.0000 -32.0000 65 hurdat_atl main 1676 1674 O_____________ hurdat_atl AL071901 43.0000 -32.0000 HU 65 1 20 31
1901241N14338 1901 28 NA NA NOT_NAMED 1901-09-10 15:00:00 TS 43.7431 -31.4289 main 1690 1685 P_____________ AL071901 43.7431 -31.4289 HU 65 1 16 30
1901241N14338 1901 28 NA NA NOT_NAMED 1901-09-10 18:00:00 TS 44.4000 -30.9000 65 hurdat_atl main 1699 1625 O_____________ hurdat_atl AL071901 44.4000 -30.9000 HU 65 1 16 34
1901241N14338 1901 28 NA NA NOT_NAMED 1901-09-10 21:00:00 TS 45.0927 -30.1365 main 1619 1524 P_____________ AL071901 45.0927 -30.1365 HU 60 0 18 39
1901241N14338 1901 28 NA NA NOT_NAMED 1901-09-11 00:00:00 ET 45.8000 -29.3000 55 hurdat_atl main 1524 1437 O_____________ hurdat_atl AL071901 45.8000 -29.3000 EX 55 -4 18 37
1901241N14338 1901 28 NA NA NOT_NAMED 1901-09-11 03:00:00 ET 46.5549 -28.5780 main 1432 1341 P_____________ AL071901 46.5549 -28.5780 EX 50 -4 19 36
1901241N14338 1901 28 NA NA NOT_NAMED 1901-09-11 06:00:00 ET 47.3000 -27.7000 45 hurdat_atl main 1334 1232 O_____________ hurdat_atl AL071901 47.3000 -27.7000 EX 45 -4 20 43
1901241N14338 1901 28 NA NA NOT_NAMED 1901-09-11 09:00:00 ET 48.0105 -26.6033 main 1226 1097 P_____________ AL071901 48.0105 -26.6033 EX 42 -4 22 54
1901241N14338 1901 28 NA NA NOT_NAMED 1901-09-11 12:00:00 ET 48.6000 -25.0000 40 hurdat_atl main 1091 926 O_____________ hurdat_atl AL071901 48.6000 -25.0000 EX 40 -4 27 69
1901241N14338 1901 28 NA NA NOT_NAMED 1901-09-11 15:00:00 ET 48.9825 -22.7058 main 920 746 P_____________ AL071901 48.9825 -22.7058 EX 37 -4 33 80
1901241N14338 1901 28 NA NA NOT_NAMED 1901-09-11 18:00:00 ET 49.2000 -20.0000 35 hurdat_atl main 733 O_____________ hurdat_atl AL071901 49.2000 -20.0000 EX 35 -4 36 83

About IBTrACS Database

This database is a web-friendly format of International Best Track Archive for Climate Stewardship (IBTrACS), a global best track data archive curated by NOAA dating back to 1842.

Updated: 2021-11-26